createdAt,value
2019-01-15T00:00:53.215Z,1.14
2019-01-15T00:03:22.965Z,1.04
2019-01-15T00:05:52.743Z,0.96
2019-01-15T00:08:22.631Z,0.90
2019-01-15T00:10:52.392Z,0.71
2019-01-15T00:13:22.351Z,0.71
2019-01-15T00:15:52.163Z,0.66
2019-01-15T00:18:21.930Z,0.66
2019-01-15T00:20:51.610Z,0.63
2019-01-15T00:23:21.431Z,0.54
2019-01-15T00:25:51.259Z,0.46
2019-01-15T00:28:21.057Z,0.18
2019-01-15T00:30:50.886Z,0.11
2019-01-15T00:33:20.653Z,0.07
2019-01-15T00:35:50.420Z,0.07
2019-01-15T00:38:20.270Z,-0.01
2019-01-15T00:40:50.223Z,-0.04
2019-01-15T00:43:20.058Z,-0.01
2019-01-15T00:45:49.874Z,-0.01
2019-01-15T00:48:20.547Z,-0.13
2019-01-15T00:50:50.701Z,-0.12
2019-01-15T00:53:20.592Z,-0.22
2019-01-15T00:55:50.401Z,-0.33
2019-01-15T00:58:20.347Z,-0.33
2019-01-15T01:00:50.148Z,-0.30
2019-01-15T01:03:20.102Z,-0.28
2019-01-15T01:05:50.020Z,-0.35
2019-01-15T01:08:19.899Z,-0.35
2019-01-15T01:10:49.667Z,-0.39
2019-01-15T01:13:19.849Z,-0.38
2019-01-15T01:15:49.640Z,-0.39
2019-01-15T01:18:19.423Z,-0.45
2019-01-15T01:20:49.235Z,-0.45
2019-01-15T01:23:19.125Z,-0.47
2019-01-15T01:25:48.928Z,-0.46
2019-01-15T01:28:18.715Z,-0.42
2019-01-15T01:30:48.608Z,-0.42
2019-01-15T01:33:18.393Z,-0.15
2019-01-15T01:35:48.151Z,-0.12
2019-01-15T01:38:18.655Z,-0.21
2019-01-15T01:40:48.446Z,-0.21
2019-01-15T01:43:18.271Z,-0.25
2019-01-15T01:45:48.099Z,-0.31
2019-01-15T01:48:17.809Z,-0.35
2019-01-15T01:50:47.495Z,-0.31
2019-01-15T01:53:17.217Z,-0.34
2019-01-15T01:55:47.059Z,-0.40
2019-01-15T01:58:21.068Z,-0.43
2019-01-15T02:00:50.955Z,-0.47
2019-01-15T02:03:20.718Z,-0.46
2019-01-15T02:05:50.649Z,-0.47
2019-01-15T02:08:20.447Z,-0.47
2019-01-15T02:10:50.376Z,-0.45
2019-01-15T02:13:20.151Z,-0.54
2019-01-15T02:15:49.976Z,-0.52
2019-01-15T02:18:19.743Z,-0.43
2019-01-15T02:20:49.523Z,-0.35
2019-01-15T02:23:19.346Z,-0.38
2019-01-15T02:25:49.139Z,-0.39
2019-01-15T02:28:18.932Z,-0.34
2019-01-15T02:30:48.771Z,-0.34
2019-01-15T02:33:18.542Z,-0.33
2019-01-15T02:35:48.276Z,-0.32
2019-01-15T02:38:18.107Z,-0.30
2019-01-15T02:40:47.872Z,-0.31
2019-01-15T02:43:18.191Z,-0.33
2019-01-15T02:45:48.023Z,-0.33
2019-01-15T02:48:17.807Z,-0.32
2019-01-15T02:50:47.713Z,-0.32
2019-01-15T02:53:17.549Z,-0.34
2019-01-15T02:55:47.340Z,-0.38
2019-01-15T02:58:17.148Z,-0.48
2019-01-15T03:00:46.988Z,-0.48
2019-01-15T03:03:16.779Z,-0.52
2019-01-15T03:05:46.551Z,-0.53
2019-01-15T03:08:16.392Z,-0.56
2019-01-15T03:10:46.542Z,-0.56
2019-01-15T03:13:16.350Z,-0.66
2019-01-15T03:15:46.252Z,-0.69
2019-01-15T03:18:16.038Z,-0.52
2019-01-15T03:20:45.793Z,-0.59
2019-01-15T03:23:15.648Z,-0.64
2019-01-15T03:25:45.448Z,-0.67
2019-01-15T03:28:15.216Z,-0.69
2019-01-15T03:30:45.113Z,-0.71
2019-01-15T03:33:14.938Z,-0.70
2019-01-15T03:35:44.727Z,-0.87
2019-01-15T03:38:14.521Z,-0.87
2019-01-15T03:40:44.285Z,-0.89
2019-01-15T03:43:14.108Z,-0.82
2019-01-15T03:45:43.999Z,-0.88
2019-01-15T03:48:13.825Z,-0.88
2019-01-15T03:50:43.592Z,-0.95
2019-01-15T03:53:13.435Z,-1.06
2019-01-15T03:55:43.232Z,-1.06
2019-01-15T03:58:13.283Z,-1.02
2019-01-15T04:00:43.169Z,-0.93
2019-01-15T04:03:13.018Z,-0.85
2019-01-15T04:05:42.789Z,-0.76
2019-01-15T04:08:12.644Z,-0.71
2019-01-15T04:10:42.397Z,-0.76
2019-01-15T04:13:12.187Z,-0.80
2019-01-15T04:15:42.069Z,-0.80
2019-01-15T04:18:11.840Z,-0.77
2019-01-15T04:20:41.627Z,-0.78
2019-01-15T04:23:11.821Z,-0.83
2019-01-15T04:25:41.567Z,-0.91
2019-01-15T04:28:11.297Z,-0.96
2019-01-15T04:30:41.157Z,-1.95
2019-01-15T04:33:10.964Z,-0.98
2019-01-15T04:35:40.762Z,-1.04
2019-01-15T04:38:10.642Z,-1.09
2019-01-15T04:40:40.389Z,-1.11
2019-01-15T04:43:10.171Z,-1.11
2019-01-15T04:45:40.002Z,-1.16
2019-01-15T04:48:10.024Z,-1.20
2019-01-15T04:50:39.704Z,-1.16
2019-01-15T04:53:09.511Z,-1.27
2019-01-15T04:55:39.311Z,-1.31
2019-01-15T04:58:09.080Z,-1.33
2019-01-15T05:00:38.903Z,-1.34
2019-01-15T05:03:09.375Z,-1.36
2019-01-15T05:05:39.160Z,-1.37
2019-01-15T05:08:08.976Z,-1.44
2019-01-15T05:10:38.758Z,-1.46
2019-01-15T05:13:08.571Z,-1.38
2019-01-15T05:15:38.379Z,-1.28
2019-01-15T05:18:08.222Z,-1.24
2019-01-15T05:20:38.139Z,-1.22
2019-01-15T05:23:07.947Z,-1.28
2019-01-15T05:25:37.671Z,-1.28
2019-01-15T05:28:07.468Z,-1.17
2019-01-15T05:30:37.286Z,-1.27
2019-01-15T05:33:07.087Z,-1.49
2019-01-15T05:35:36.846Z,-1.41
2019-01-15T05:38:06.681Z,-1.48
2019-01-15T05:40:36.649Z,-1.57
2019-01-15T05:43:06.421Z,-1.53
2019-01-15T05:45:36.795Z,-1.49
2019-01-15T05:48:08.240Z,-1.56
2019-01-15T05:50:42.326Z,-1.58
2019-01-15T05:53:13.699Z,-1.57
2019-01-15T05:55:43.387Z,-1.61
2019-01-15T05:58:13.283Z,-1.62
2019-01-15T06:00:43.150Z,-1.68
2019-01-15T06:03:12.945Z,-1.57
2019-01-15T06:05:42.772Z,-1.33
2019-01-15T06:08:12.559Z,-0.11
2019-01-15T06:10:42.319Z,0.52
2019-01-15T06:13:12.136Z,0.80
2019-01-15T06:15:41.869Z,1.32
2019-01-15T06:18:11.628Z,0.86
2019-01-15T06:20:41.478Z,0.30
2019-01-15T06:23:11.246Z,-0.10
2019-01-15T06:25:41.068Z,-0.44
2019-01-15T06:28:10.898Z,-0.75
2019-01-15T06:30:40.681Z,-0.95
2019-01-15T06:33:10.430Z,-1.00
2019-01-15T06:35:40.287Z,-1.13
2019-01-15T06:38:10.113Z,-1.17
2019-01-15T06:40:39.879Z,-0.42
2019-01-15T06:43:09.699Z,-0.48
2019-01-15T06:45:39.496Z,-0.71
2019-01-15T06:48:09.257Z,-0.85
2019-01-15T06:50:39.536Z,-0.95
2019-01-15T06:53:09.628Z,-0.99
2019-01-15T06:55:39.440Z,-0.96
2019-01-15T06:58:09.259Z,-0.88
2019-01-15T07:00:39.050Z,-0.88
2019-01-15T07:03:08.838Z,-0.73
2019-01-15T07:05:38.702Z,-0.53
2019-01-15T07:08:08.471Z,-0.49
2019-01-15T07:10:39.461Z,-0.19
2019-01-15T07:13:09.351Z,-0.06
2019-01-15T07:15:40.211Z,-0.06
2019-01-15T07:18:10.041Z,-0.25
2019-01-15T07:20:39.832Z,-0.32
2019-01-15T07:23:09.630Z,-0.32
2019-01-15T07:25:39.400Z,-0.30
2019-01-15T07:28:09.149Z,-0.38
2019-01-15T07:30:42.704Z,-0.46
2019-01-15T07:33:12.511Z,-0.47
2019-01-15T07:35:42.289Z,-0.33
2019-01-15T07:38:12.077Z,-0.38
2019-01-15T07:40:41.909Z,-0.25
2019-01-15T07:43:11.700Z,-0.05
2019-01-15T07:45:41.478Z,0.04
2019-01-15T07:48:11.316Z,0.14
2019-01-15T07:50:41.056Z,0.25
2019-01-15T07:53:11.462Z,0.36
2019-01-15T07:55:41.286Z,0.53
2019-01-15T07:58:11.097Z,0.87
2019-01-15T08:00:41.358Z,1.05
2019-01-15T08:03:11.214Z,1.05
2019-01-15T08:05:41.009Z,1.11
2019-01-15T08:08:10.743Z,1.19
2019-01-15T08:10:41.701Z,1.19
2019-01-15T08:13:11.758Z,1.44
2019-01-15T08:15:41.536Z,1.44
2019-01-15T08:18:11.307Z,1.43
2019-01-15T08:20:41.300Z,1.56
2019-01-15T08:23:11.249Z,1.71
2019-01-15T08:25:41.427Z,1.74
2019-01-15T08:28:11.235Z,1.53
2019-01-15T08:30:40.983Z,1.60
2019-01-15T08:33:10.633Z,1.65
2019-01-15T08:35:40.488Z,1.78
2019-01-15T08:38:10.251Z,1.92
2019-01-15T08:40:40.028Z,1.99
2019-01-15T08:43:09.910Z,2.08
2019-01-15T08:45:39.670Z,2.25
2019-01-15T08:48:11.035Z,2.60
2019-01-15T08:50:41.111Z,2.60
2019-01-15T08:53:11.666Z,2.80
2019-01-15T08:55:41.447Z,2.99
2019-01-15T08:58:11.313Z,3.15
2019-01-15T09:00:41.272Z,3.27
2019-01-15T09:03:11.055Z,3.36
2019-01-15T09:05:42.171Z,3.51
2019-01-15T09:08:12.093Z,3.69
2019-01-15T09:10:41.977Z,3.97
2019-01-15T09:13:11.780Z,4.15
2019-01-15T09:15:41.628Z,4.19
2019-01-15T09:18:11.436Z,4.25
2019-01-15T09:20:41.264Z,4.32
2019-01-15T09:23:11.052Z,4.30
2019-01-15T09:25:40.912Z,4.02
2019-01-15T09:28:10.641Z,3.92
2019-01-15T09:30:40.348Z,3.87
2019-01-15T09:33:10.115Z,3.88
2019-01-15T09:35:39.917Z,3.87
2019-01-15T09:38:09.791Z,3.93
2019-01-15T09:40:39.540Z,4.07
2019-01-15T09:43:09.370Z,4.23
2019-01-15T09:45:39.181Z,4.47
2019-01-15T09:48:09.220Z,4.65
2019-01-15T09:50:40.596Z,4.85
2019-01-15T09:53:10.361Z,5.00
2019-01-15T09:55:40.170Z,5.16
2019-01-15T09:58:10.091Z,5.28
2019-01-15T10:00:40.067Z,5.36
2019-01-15T10:03:09.852Z,5.41
2019-01-15T10:05:40.066Z,5.53
2019-01-15T10:08:09.845Z,5.50
2019-01-15T10:10:39.604Z,5.31
2019-01-15T10:13:09.447Z,5.26
2019-01-15T10:15:39.312Z,5.25
2019-01-15T10:18:09.497Z,5.27
2019-01-15T10:20:39.350Z,5.06
2019-01-15T10:23:09.109Z,5.01
2019-01-15T10:25:39.192Z,5.12
2019-01-15T10:28:09.492Z,5.17
2019-01-15T10:30:42.801Z,5.19
2019-01-15T10:33:24.851Z,5.24
2019-01-15T10:35:54.839Z,5.24
2019-01-15T10:38:26.741Z,5.12
2019-01-15T10:40:57.669Z,5.02
2019-01-15T10:43:27.930Z,5.00
2019-01-15T10:45:57.634Z,5.07
2019-01-15T10:48:27.360Z,5.00
2019-01-15T10:50:57.043Z,5.06
2019-01-15T10:53:27.393Z,4.97
2019-01-15T10:55:57.350Z,5.05
2019-01-15T10:58:27.402Z,5.13
2019-01-15T11:00:57.706Z,4.99
2019-01-15T11:03:27.384Z,4.94
2019-01-15T11:05:57.129Z,4.97
2019-01-15T11:08:26.920Z,4.95
2019-01-15T11:10:56.889Z,4.94
2019-01-15T11:13:26.802Z,4.92
2019-01-15T11:15:56.711Z,4.95
2019-01-15T11:18:26.556Z,5.03
2019-01-15T11:20:56.329Z,5.09
2019-01-15T11:23:25.980Z,5.14
2019-01-15T11:25:56.949Z,5.20
2019-01-15T11:28:26.733Z,5.24
2019-01-15T11:30:56.517Z,5.32
2019-01-15T11:33:26.814Z,5.41
2019-01-15T11:35:56.746Z,5.54
2019-01-15T11:38:27.279Z,5.59
2019-01-15T11:40:57.118Z,5.61
2019-01-15T11:43:26.886Z,5.65
2019-01-15T11:45:56.669Z,5.74
2019-01-15T11:48:26.485Z,6.09
2019-01-15T11:50:56.237Z,5.93
2019-01-15T11:53:26.035Z,5.80
2019-01-15T11:55:55.943Z,5.85
2019-01-15T11:58:25.704Z,5.79
2019-01-15T12:00:57.063Z,5.79
2019-01-15T12:03:40.772Z,5.83
2019-01-15T12:06:15.107Z,5.91
2019-01-15T12:09:03.124Z,5.94
2019-01-15T12:11:44.347Z,5.90
2019-01-15T12:14:25.017Z,5.90
2019-01-15T12:17:11.297Z,5.86
2019-01-15T12:19:42.700Z,5.95
2019-01-15T12:22:29.090Z,5.87
2019-01-15T12:25:17.041Z,5.85
2019-01-15T12:28:03.749Z,5.91
2019-01-15T12:30:44.293Z,5.83
2019-01-15T12:33:21.630Z,5.91
2019-01-15T12:35:53.017Z,5.87
2019-01-15T12:38:27.193Z,6.03
2019-01-15T12:41:14.293Z,5.93
2019-01-15T12:43:48.729Z,5.88
2019-01-15T12:46:20.131Z,5.93
2019-01-15T12:49:00.714Z,5.79
2019-01-15T12:51:48.245Z,5.67
2019-01-15T12:54:31.892Z,5.87
2019-01-15T12:57:09.109Z,5.84
2019-01-15T12:59:56.831Z,6.03
2019-01-15T13:02:46.277Z,6.09
2019-01-15T13:05:20.988Z,5.85
2019-01-15T13:08:08.613Z,5.77
2019-01-15T13:10:46.021Z,5.63
2019-01-15T13:13:23.517Z,5.49
2019-01-15T13:16:00.928Z,5.39
2019-01-15T13:18:48.462Z,5.35
2019-01-15T13:21:38.902Z,5.28
2019-01-15T13:24:10.299Z,5.25
2019-01-15T13:26:57.829Z,5.20
2019-01-15T13:29:38.051Z,5.17
2019-01-15T13:32:09.407Z,5.19
2019-01-15T13:34:40.760Z,5.20
2019-01-15T13:37:15.022Z,5.34
2019-01-15T13:39:46.426Z,4.58
2019-01-15T13:42:23.662Z,5.47
2019-01-15T13:44:58.025Z,5.21
2019-01-15T13:47:35.520Z,5.03
2019-01-15T13:50:18.226Z,4.93
2019-01-15T13:52:58.119Z,4.99
2019-01-15T13:55:29.439Z,4.96
2019-01-15T13:58:12.717Z,5.62
2019-01-15T14:00:44.040Z,5.75
2019-01-15T14:03:15.388Z,5.68
2019-01-15T14:06:03.051Z,5.58
2019-01-15T14:08:43.826Z,5.61
2019-01-15T14:11:15.206Z,5.54
2019-01-15T14:13:52.721Z,5.49
2019-01-15T14:16:39.743Z,5.55
2019-01-15T14:19:11.106Z,5.51
2019-01-15T14:21:59.532Z,5.51
2019-01-15T14:24:36.869Z,5.49
2019-01-15T14:27:14.329Z,5.39
2019-01-15T14:30:02.940Z,5.34
2019-01-15T14:32:37.513Z,5.22
2019-01-15T14:35:09.434Z,5.19
2019-01-15T14:37:50.070Z,5.14
2019-01-15T14:40:21.380Z,5.05
2019-01-15T14:43:01.986Z,4.99
2019-01-15T14:45:48.388Z,4.95
2019-01-15T14:48:19.773Z,4.94
2019-01-15T14:51:09.306Z,4.87
2019-01-15T14:53:40.579Z,4.96
2019-01-15T14:56:11.933Z,5.04
2019-01-15T14:58:49.130Z,5.03
2019-01-15T15:01:20.445Z,4.96
2019-01-15T15:03:57.653Z,4.97
2019-01-15T15:06:29.010Z,4.90
2019-01-15T15:09:09.641Z,5.02
2019-01-15T15:11:40.963Z,4.89
2019-01-15T15:14:12.412Z,4.68
2019-01-15T15:16:43.791Z,4.64
2019-01-15T15:19:15.031Z,4.52
2019-01-15T15:21:55.538Z,4.45
2019-01-15T15:24:26.846Z,4.34
2019-01-15T15:26:58.199Z,4.27
2019-01-15T15:29:29.485Z,4.29
2019-01-15T15:32:17.292Z,4.24
2019-01-15T15:35:00.773Z,4.19
2019-01-15T15:37:32.108Z,4.11
2019-01-15T15:40:12.533Z,4.05
2019-01-15T15:42:47.060Z,4.02
2019-01-15T15:45:21.446Z,4.44
2019-01-15T15:48:08.888Z,4.52
2019-01-15T15:50:40.288Z,4.45
2019-01-15T15:53:20.846Z,4.18
2019-01-15T15:55:54.986Z,4.03
2019-01-15T15:58:41.629Z,4.00
2019-01-15T16:01:21.800Z,3.97
2019-01-15T16:03:56.200Z,3.87
2019-01-15T16:06:44.090Z,4.14
2019-01-15T16:09:18.421Z,4.01
2019-01-15T16:11:50.852Z,3.82
2019-01-15T16:14:25.028Z,3.69
2019-01-15T16:17:12.871Z,3.61
2019-01-15T16:19:53.240Z,3.56
2019-01-15T16:22:29.131Z,3.83
2019-01-15T16:25:00.445Z,3.92
2019-01-15T16:27:31.765Z,4.12
2019-01-15T16:30:15.106Z,3.93
2019-01-15T16:33:01.472Z,3.74
2019-01-15T16:35:33.131Z,3.59
2019-01-15T16:38:13.575Z,3.58
2019-01-15T16:41:01.252Z,3.50
2019-01-15T16:43:32.616Z,3.76
2019-01-15T16:46:10.081Z,3.74
2019-01-15T16:48:50.422Z,3.72
2019-01-15T16:51:34.241Z,3.72
2019-01-15T16:54:08.718Z,3.59
2019-01-15T16:56:46.051Z,3.67
2019-01-15T16:59:25.942Z,3.76
2019-01-15T17:02:00.306Z,3.70
2019-01-15T17:04:46.972Z,3.62
2019-01-15T17:07:18.339Z,3.55
2019-01-15T17:09:49.699Z,3.47
2019-01-15T17:12:26.808Z,3.42
2019-01-15T17:15:00.805Z,3.37
2019-01-15T17:17:38.279Z,3.51
2019-01-15T17:20:14.012Z,3.47
2019-01-15T17:22:45.401Z,3.46
2019-01-15T17:25:19.200Z,3.40
2019-01-15T17:28:06.818Z,3.32
2019-01-15T17:30:48.140Z,3.24
2019-01-15T17:33:28.656Z,3.15
2019-01-15T17:36:16.334Z,3.08
2019-01-15T17:39:05.817Z,3.01
2019-01-15T17:41:40.239Z,2.95
2019-01-15T17:44:19.218Z,2.92
2019-01-15T17:46:59.879Z,2.91
2019-01-15T17:49:35.139Z,2.77
2019-01-15T17:52:12.634Z,2.65
2019-01-15T17:54:46.797Z,2.76
2019-01-15T17:57:18.114Z,2.75
2019-01-15T17:59:49.498Z,2.60
2019-01-15T18:02:27.355Z,2.43
2019-01-15T18:05:07.787Z,2.37
2019-01-15T18:07:42.047Z,2.36
2019-01-15T18:10:29.849Z,2.24
2019-01-15T18:13:11.761Z,2.28
2019-01-15T18:15:43.041Z,2.14
2019-01-15T18:18:17.348Z,2.01
2019-01-15T18:20:54.858Z,2.13
2019-01-15T18:23:26.391Z,1.97
2019-01-15T18:26:14.770Z,1.95
2019-01-15T18:28:46.349Z,2.00
2019-01-15T18:31:17.709Z,1.80
2019-01-15T18:33:50.691Z,1.62
2019-01-15T18:36:38.269Z,1.92
2019-01-15T18:39:38.247Z,1.80
2019-01-15T18:42:26.546Z,1.74
2019-01-15T18:45:04.261Z,1.73
2019-01-15T18:47:41.680Z,1.62
2019-01-15T18:50:13.180Z,1.58
2019-01-15T18:52:48.320Z,1.51
2019-01-15T18:55:33.820Z,1.60
2019-01-15T18:58:06.854Z,1.48
2019-01-15T19:00:40.191Z,1.34
2019-01-15T19:03:14.021Z,1.28
2019-01-15T19:05:51.380Z,1.23
2019-01-15T19:08:28.813Z,1.18
2019-01-15T19:11:15.534Z,1.26
2019-01-15T19:14:07.228Z,1.24
2019-01-15T19:16:44.784Z,1.17
2019-01-15T19:19:19.201Z,1.08
2019-01-15T19:22:08.460Z,1.06
2019-01-15T19:24:39.820Z,1.06
2019-01-15T19:27:20.339Z,1.04
2019-01-15T19:30:07.960Z,1.02
2019-01-15T19:32:56.582Z,0.99
2019-01-15T19:35:44.334Z,0.99
2019-01-15T19:38:15.683Z,0.94
2019-01-15T19:40:47.017Z,0.93
2019-01-15T19:43:18.404Z,0.92
2019-01-15T19:46:02.014Z,0.81
2019-01-15T19:48:36.293Z,0.76
2019-01-15T19:51:08.054Z,0.76
2019-01-15T19:53:55.993Z,0.80
2019-01-15T19:56:43.644Z,0.79
2019-01-15T19:59:17.710Z,0.93
2019-01-15T20:02:05.404Z,0.90
2019-01-15T20:04:45.794Z,0.90
2019-01-15T20:07:18.761Z,1.26
2019-01-15T20:10:06.611Z,1.08
2019-01-15T20:12:49.880Z,1.08
2019-01-15T20:15:41.060Z,0.90
2019-01-15T20:18:14.063Z,0.90
2019-01-15T20:20:51.664Z,0.68
2019-01-15T20:23:23.021Z,0.66
2019-01-15T20:26:07.128Z,0.66
2019-01-15T20:28:40.967Z,0.51
2019-01-15T20:31:12.307Z,0.51
2019-01-15T20:33:52.813Z,0.55
2019-01-15T20:36:27.215Z,0.51
2019-01-15T20:39:02.392Z,0.51
2019-01-15T20:41:37.964Z,0.50
2019-01-15T20:44:14.615Z,0.44
2019-01-15T20:47:03.401Z,0.36
2019-01-15T20:49:52.244Z,0.50
2019-01-15T20:52:27.398Z,0.50
2019-01-15T20:55:07.636Z,0.49
2019-01-15T20:57:41.683Z,0.75
2019-01-15T21:00:29.053Z,0.75
2019-01-15T21:03:02.669Z,0.90
2019-01-15T21:06:11.003Z,0.90
2019-01-15T21:08:57.278Z,0.67
2019-01-15T21:11:51.905Z,0.67
2019-01-15T21:14:28.878Z,0.54
2019-01-15T21:17:18.194Z,0.41
2019-01-15T21:19:55.524Z,0.53
2019-01-15T21:22:40.237Z,0.53
2019-01-15T21:25:14.385Z,0.46
2019-01-15T21:27:46.965Z,0.45
2019-01-15T21:30:38.167Z,0.49
2019-01-15T21:33:15.372Z,0.39
2019-01-15T21:35:49.153Z,0.37
2019-01-15T21:38:26.591Z,0.22
2019-01-15T21:41:00.633Z,0.22
2019-01-15T21:43:44.172Z,0.17
2019-01-15T21:46:18.401Z,0.16
2019-01-15T21:49:05.851Z,0.22
2019-01-15T21:52:03.836Z,0.28
2019-01-15T21:54:51.902Z,0.23
2019-01-15T21:57:33.033Z,0.06
2019-01-15T22:00:10.471Z,0.09
2019-01-15T22:02:58.412Z,0.04
2019-01-15T22:05:32.632Z,-0.24
2019-01-15T22:08:10.833Z,-0.27
2019-01-15T22:10:56.443Z,-0.27
2019-01-15T22:13:33.295Z,-0.27
2019-01-15T22:16:16.428Z,-0.24
2019-01-15T22:19:10.508Z,-0.28
2019-01-15T22:21:47.388Z,-0.31
2019-01-15T22:24:38.930Z,-0.41
2019-01-15T22:27:15.135Z,-0.37
2019-01-15T22:29:57.334Z,-0.40
2019-01-15T22:32:36.600Z,-0.36
2019-01-15T22:35:16.248Z,-0.22
2019-01-15T22:38:08.216Z,-0.21
2019-01-15T22:40:45.678Z,-0.30
2019-01-15T22:43:40.005Z,-0.17
2019-01-15T22:46:26.372Z,-0.05
2019-01-15T22:49:11.010Z,0.02
2019-01-15T22:52:05.818Z,-0.27
2019-01-15T22:54:53.093Z,-0.33
2019-01-15T22:57:28.504Z,-0.33
2019-01-15T23:00:18.603Z,-0.49
2019-01-15T23:03:06.659Z,-0.48
2019-01-15T23:05:55.770Z,-0.44
2019-01-15T23:08:27.383Z,-0.33
2019-01-15T23:11:04.722Z,-0.33
2019-01-15T23:13:36.119Z,-0.36
2019-01-15T23:16:07.604Z,-0.28
2019-01-15T23:18:50.919Z,-0.28
2019-01-15T23:21:34.289Z,0.03
2019-01-15T23:24:22.287Z,-0.10
2019-01-15T23:26:59.562Z,-0.32
2019-01-15T23:29:47.485Z,-0.40
2019-01-15T23:32:21.866Z,-0.57
2019-01-15T23:34:59.310Z,-0.48
2019-01-15T23:37:39.726Z,-0.55
2019-01-15T23:40:17.427Z,-0.67
2019-01-15T23:43:04.095Z,-0.74
2019-01-15T23:45:38.482Z,-0.66
2019-01-15T23:48:10.100Z,-0.83
2019-01-15T23:50:47.612Z,-0.92
2019-01-15T23:53:37.371Z,-0.89
2019-01-15T23:56:08.765Z,-0.85
2019-01-15T23:58:45.882Z,-0.81
